Richmond, Louisiana
Current Conditions -  °F | °C
As of 12:53 PM on Friday 21 Nov 2014 (Local Time) from KTVR Reporting Station
Overcast Overcast  
Wind Chill: 72°   Ceiling: 10000
Heat Index: 72°   Visibility: 10mi
Dew Point: 45°   Wind: 16mph
Humidity: 38%   Direction: 170°S
Pressure: 30.24"   Gusts: NA
Location:  32.3599°N, 91.2529°W
Report Text: KTVR 211853Z AUTO 17014KT 10SM OVC100 22/07 A3024 RMK AO2 SLP247 T02220072
Loading
Personal Weather Stations






























Interactive Weather Map New forecast layout! Learn more

10-Day Weather Forecast

Advertisements
Track Severe Weather on mobile